Flight Track Log - Related Links

Times and Time Zones

All times are in EDT time to prevent confusion due to time zone crossing. See the AAY876 flight status page for this flight to view local times or setup timezone preferences in your user account.

Time Position Orientation Groundspeed Altitude Reporting Facility
EDT Latitude Longitude Course Direction KTS MPH feet Rate Location/Type
Sun 03:39:24 PM 27.9333 -82.6833 360° North 169 194 900  Level Tampa TRACON
Sun 03:40:12 PM 27.9667 -82.6833 360° North 187 215 2,100 2,100 Climbing Tampa TRACON
Sun 03:41:24 PM 28.0500 -82.6667 10° North 272 313 5,100 2,241 Climbing Tampa TRACON
Sun 03:44:21 PM 28.2708 -82.6900 355° North 298 343 11,400 2,000 Climbing Jacksonville Center
Sun 03:45:21 PM 28.3711 -82.7181 346° North 333 383 13,000 2,000 Climbing Jacksonville Center
Sun 03:46:21 PM 28.4753 -82.7486 346° North 362 417 15,400 2,350 Climbing Jacksonville Center
Sun 03:47:21 PM 28.5861 -82.7767 347° North 388 447 17,700 1,900 Climbing Jacksonville Center
Sun 03:48:21 PM 28.6967 -82.8050 347° North 399 459 19,200 1,700 Climbing Jacksonville Center
Sun 03:49:21 PM 28.8094 -82.8358 347° North 399 459 21,100 1,700 Climbing Jacksonville Center
Sun 03:50:21 PM 28.9264 -82.8664 347° North 415 478 22,600 1,700 Climbing Jacksonville Center
Sun 03:51:21 PM 29.0453 -82.9019 345° North 421 484 24,500 1,800 Climbing Jacksonville Center
Sun 03:52:21 PM 29.1642 -82.9306 348° North 427 491 26,200 1,650 Climbing Jacksonville Center
Sun 03:53:21 PM 29.2811 -82.9617 347° North 432 497 27,800 1,650 Climbing Jacksonville Center
Sun 03:54:21 PM 29.3981 -82.9950 346° North 432 497 29,500 1,450 Climbing Jacksonville Center
Sun 03:55:21 PM 29.5147 -83.0286 346° North 427 491 30,700 1,200 Climbing Jacksonville Center
Sun 03:56:21 PM 29.6256 -83.0597 346° North 427 491 31,900 600 Climbing Jacksonville Center
Sun 03:57:21 PM 29.7297 -83.1078 338° Northwest 410 472 31,900  Level Jacksonville Center
Sun 03:58:21 PM 29.8342 -83.1583 337° Northwest 405 466 31,900  Level Jacksonville Center
Sun 03:59:21 PM 29.9364 -83.2067 338° Northwest 405 466 31,900  Level Jacksonville Center
Sun 04:00:21 PM 30.0550 -83.2597 339° North 405 466 31,900  Level Jacksonville Center
Sun 04:01:21 PM 30.1594 -83.3083 338° Northwest 405 466 31,900  Level Jacksonville Center
Sun 04:02:21 PM 30.2678 -83.3592 338° Northwest 405 466 31,900 50 Level Jacksonville Center
Sun 04:03:21 PM 30.3719 -83.4078 338° Northwest 405 466 32,000  Climbing Jacksonville Center
Sun 04:04:21 PM 30.4783 -83.4567 338° Northwest 405 466 31,900 -50 Descending Jacksonville Center
Sun 04:05:21 PM 30.5825 -83.5081 337° Northwest 405 466 31,900 50 Level Jacksonville Center
Sun 04:06:21 PM 30.6867 -83.5569 338° Northwest 405 466 32,000 50 Climbing Jacksonville Center
Sun 04:07:21 PM 30.7803 -83.6036 337° Northwest 405 466 32,000  Level Jacksonville Center
Sun 04:08:21 PM 30.8844 -83.6550 337° Northwest 405 466 32,000  Level Jacksonville Center
Sun 04:09:21 PM 30.9906 -83.7044 338° Northwest 405 466 32,000  Level Jacksonville Center
Sun 04:11:29 PM 31.2225 -83.8203 337° Northwest 407 468 32,000  Level Atlanta Center
Sun 04:12:29 PM 31.3292 -83.8686 339° North 407 468 32,000  Level Atlanta Center
Sun 04:13:29 PM 31.4336 -83.9172 338° Northwest 402 463 32,000  Level Atlanta Center
Sun 04:14:29 PM 31.5400 -83.9683 338° Northwest 402 463 32,000  Level Atlanta Center
Sun 04:15:29 PM 31.6528 -83.9925 350° North 402 463 32,000  Level Atlanta Center
Sun 04:16:29 PM 31.7444 -84.0094 351° North 402 463 32,000  Level Atlanta Center
Sun 04:17:29 PM 31.8697 -84.0389 349° North 408 470 32,000  Level Atlanta Center
Sun 04:18:29 PM 31.9803 -84.0608 350° North 408 470 32,000  Level Atlanta Center
Sun 04:19:29 PM 32.0931 -84.0878 349° North 408 470 32,000  Level Atlanta Center
Sun 04:20:29 PM 32.2058 -84.1100 351° North 408 470 32,000  Level Atlanta Center
Sun 04:21:29 PM 32.3186 -84.1372 348° North 408 470 32,000  Level Atlanta Center
Sun 04:22:29 PM 32.4311 -84.1594 351° North 408 470 32,000  Level Atlanta Center
Sun 04:23:29 PM 32.5439 -84.1867 348° North 408 470 32,000  Level Atlanta Center
Sun 04:24:29 PM 32.6567 -84.2117 349° North 408 470 32,000  Level Atlanta Center
Sun 04:25:29 PM 32.7692 -84.2389 348° North 413 475 32,000 50 Level Atlanta Center
Sun 04:26:29 PM 32.8797 -84.2664 348° North 403 464 32,100  Climbing Atlanta Center
Sun 04:27:29 PM 32.9925 -84.2889 351° North 408 470 32,000 -50 Descending Atlanta Center
Sun 04:28:29 PM 33.1050 -84.3167 348° North 415 478 32,000  Level Atlanta Center
Sun 04:29:29 PM 33.2178 -84.3417 349° North 410 472 32,000  Level Atlanta Center
Sun 04:30:29 PM 33.3325 -84.3694 349° North 415 478 32,000  Level Atlanta Center
Sun 04:31:29 PM 33.4453 -84.3947 349° North 415 478 32,000  Level Atlanta Center
Sun 04:32:29 PM 33.5683 -84.4228 349° North 409 471 32,000  Level Atlanta Center
Sun 04:33:29 PM 33.6892 -84.4533 348° North 419 482 32,000  Level Atlanta Center
Sun 04:34:29 PM 33.7956 -84.4764 350° North 404 465 32,000  Level Atlanta Center
Sun 04:35:29 PM 33.9081 -84.5069 347° North 415 478 32,000  Level Atlanta Center
Sun 04:36:29 PM 34.0167 -84.5300 350° North 415 478 32,000  Level Atlanta Center
Sun 04:37:29 PM 34.1333 -84.5583 349° North 415 478 32,000  Level Atlanta Center
Sun 04:38:29 PM 34.2481 -84.5867 348° North 420 483 32,000  Level Atlanta Center
Sun 04:39:29 PM 34.3606 -84.6125 349° North 420 483 32,000  Level Atlanta Center
Sun 04:40:29 PM 34.4858 -84.6411 349° North 415 478 32,000  Level Atlanta Center
Sun 04:41:29 PM 34.6003 -84.6722 347° North 415 478 32,000  Level Atlanta Center
Sun 04:42:29 PM 34.7003 -84.6981 348° North 410 472 32,000  Level Atlanta Center
Sun 04:43:29 PM 34.8108 -84.7294 347° North 410 472 32,000  Level Atlanta Center
Sun 04:44:29 PM 34.9253 -84.7761 342° North 410 472 32,000  Level Atlanta Center
Sun 04:45:29 PM 35.0336 -84.8100 346° North 415 478 32,000  Level Atlanta Center
Sun 04:46:29 PM 35.1461 -84.8517 343° North 420 483 32,000  Level Atlanta Center
Sun 04:47:29 PM 35.2542 -84.8908 344° North 420 483 32,000  Level Atlanta Center
Sun 04:48:29 PM 35.3686 -84.9353 342° North 420 483 32,000  Level Atlanta Center
Sun 04:49:29 PM 35.4789 -84.9772 343° North 420 483 32,000  Level Atlanta Center
Sun 04:50:29 PM 35.6017 -85.0247 343° North 420 483 32,000  Level Atlanta Center
Sun 04:51:29 PM 35.7181 -85.0694 343° North 420 483 32,000  Level Atlanta Center
Sun 04:52:29 PM 35.8283 -85.1169 341° North 420 483 32,000  Level Atlanta Center
Sun 04:54:30 PM 36.0575 -85.2008 344° North 425 489 32,000  Level Indianapolis Center
Sun 04:55:33 PM 36.1711 -85.2439 343° North 425 489 32,000  Level Indianapolis Center
Sun 04:56:34 PM 36.2847 -85.2886 342° North 425 489 32,000  Level Indianapolis Center
Sun 04:57:35 PM 36.3967 -85.3322 343° North 425 489 32,000  Level Indianapolis Center
Sun 04:58:39 PM 36.5092 -85.3758 343° North 425 489 32,000  Level Indianapolis Center
Sun 04:59:40 PM 36.6217 -85.4197 343° North 425 489 32,000  Level Indianapolis Center
Sun 05:00:41 PM 36.7342 -85.4631 343° North 425 489 32,000  Level Indianapolis Center
Sun 05:01:44 PM 36.8625 -85.5136 343° North 428 493 32,000  Level Indianapolis Center
Sun 05:02:45 PM 36.9753 -85.5594 342° North 428 493 32,000  Level Indianapolis Center
Sun 05:03:49 PM 37.0850 -85.6022 343° North 419 482 32,000  Level Indianapolis Center
Sun 05:04:51 PM 37.1978 -85.6467 343° North 419 482 32,000  Level Indianapolis Center
Sun 05:05:50 PM 37.3286 -85.6997 342° North 424 488 32,000  Level Indianapolis Center
Sun 05:06:55 PM 37.4381 -85.7581 337° Northwest 430 495 32,000  Level Indianapolis Center
Sun 05:07:55 PM 37.5428 -85.8264 333° Northwest 428 493 32,000  Level Indianapolis Center
Sun 05:08:55 PM 37.6467 -85.8953 332° Northwest 421 484 32,000  Level Indianapolis Center
Sun 05:09:59 PM 37.7525 -85.9606 334° Northwest 421 484 32,000  Level Indianapolis Center
Sun 05:11:00 PM 37.8569 -86.0272 333° Northwest 421 484 32,000  Level Indianapolis Center
Sun 05:12:02 PM 37.9628 -86.0936 334° Northwest 421 484 32,000  Level Indianapolis Center
Sun 05:13:05 PM 38.0875 -86.1786 332° Northwest 422 486 32,000  Level Indianapolis Center
Sun 05:14:07 PM 38.1931 -86.2481 333° Northwest 423 487 32,000  Level Indianapolis Center
Sun 05:15:09 PM 38.2981 -86.3197 332° Northwest 425 489 32,000  Level Indianapolis Center
Sun 05:16:09 PM 38.4047 -86.3903 333° Northwest 431 496 32,000  Level Indianapolis Center
Sun 05:17:12 PM 38.5114 -86.4614 332° Northwest 431 496 32,000  Level Indianapolis Center
Sun 05:18:14 PM 38.6172 -86.5333 332° Northwest 431 496 32,000  Level Indianapolis Center
Sun 05:19:15 PM 38.7453 -86.6203 332° Northwest 432 497 32,000  Level Indianapolis Center
Sun 05:20:17 PM 38.8528 -86.6931 332° Northwest 434 499 32,000  Level Indianapolis Center
Sun 05:21:20 PM 38.9614 -86.7675 332° Northwest 438 504 32,000  Level Indianapolis Center
Sun 05:22:21 PM 39.0686 -86.8406 332° Northwest 438 504 32,000  Level Indianapolis Center
Sun 05:23:24 PM 39.1728 -86.9111 332° Northwest 436 502 32,000  Level Indianapolis Center
Sun 05:24:27 PM 39.2797 -86.9842 332° Northwest 435 501 32,000  Level Indianapolis Center
Sun 05:25:29 PM 39.4083 -87.0733 332° Northwest 434 499 32,000  Level Indianapolis Center
Sun 05:26:31 PM 39.5119 -87.1444 332° Northwest 432 497 32,000  Level Indianapolis Center
Sun 05:27:32 PM 39.6164 -87.2167 332° Northwest 427 491 32,000  Level Indianapolis Center
Sun 05:28:35 PM 39.7214 -87.2889 332° Northwest 427 491 32,000  Level Indianapolis Center
Sun 05:29:35 PM 39.8256 -87.3611 332° Northwest 427 491 32,000  Level Indianapolis Center
Sun 05:30:39 PM 39.9300 -87.4344 332° Northwest 427 491 32,000  Level Indianapolis Center
Sun 05:31:41 PM 40.0347 -87.5097 331° Northwest 427 491 32,000  Level Indianapolis Center
Sun 05:32:42 PM 40.1581 -87.5994 331° Northwest 427 491 32,000  Level Indianapolis Center
Sun 05:33:43 PM 40.2475 -87.6994 320° Northwest 426 490 32,000  Level Indianapolis Center
Sun 05:34:46 PM 40.3353 -87.7964 320° Northwest 418 481 32,000  Level Indianapolis Center
Sun 05:35:50 PM 40.4261 -87.8931 321° Northwest 418 481 32,000  Level Indianapolis Center
Sun 05:36:50 PM 40.5161 -87.9889 321° Northwest 418 481 32,000  Level Indianapolis Center
Sun 05:37:53 PM 40.6069 -88.0850 321° Northwest 418 481 32,000  Level Indianapolis Center
Sun 05:38:54 PM 40.7136 -88.2042 320° Northwest 418 481 32,000 -774 Level Indianapolis Center
Sun 05:39:57 PM 40.8042 -88.3011 321° Northwest 419 482 30,400 -1,488 Descending Indianapolis Center
Sun 05:40:59 PM 40.8944 -88.4028 320° Northwest 421 484 28,900 -1,143 Descending Indianapolis Center
Sun 05:42:03 PM 40.9869 -88.5031 321° Northwest 425 489 28,000 -1,301 Descending Indianapolis Center
Sun 05:43:22 PM 41.1069 -88.6353 320° Northwest 411 473 25,800 -1,915 Descending Chicago Center
Sun 05:44:24 PM 41.1922 -88.7281 321° Northwest 401 461 23,500 -2,274 Descending Chicago Center
Sun 05:45:26 PM 41.2750 -88.8208 320° Northwest 392 451 21,100 -2,177 Descending Chicago Center
Sun 05:46:28 PM 41.3722 -88.9300 320° Northwest 384 442 19,000 -1,887 Descending Chicago Center
Sun 05:47:30 PM 41.4522 -89.0172 321° Northwest 375 432 17,200 -1,440 Descending Chicago Center
Sun 05:48:33 PM 41.5267 -89.1003 320° Northwest 353 406 16,000 -1,152 Descending Chicago Center
Sun 05:49:35 PM 41.5997 -89.1853 319° Northwest 348 400 14,800 -968 Descending Chicago Center
Sun 05:50:37 PM 41.6750 -89.2683 321° Northwest 348 400 14,000 -823 Descending Chicago Center
Sun 05:51:39 PM 41.7672 -89.2786 355° North 362 417 13,100 -1,597 Descending Chicago Center
Sun 05:52:41 PM 41.8794 -89.2289 18° North 363 418 10,700 -1,597 Descending Chicago Center
Sun 05:53:43 PM 41.9647 -89.1933 17° North 339 390 9,800 -1,403 Descending Chicago Center
Sun 05:54:45 PM 42.0436 -89.1606 17° North 304 350 7,800 -2,032 Descending Chicago Center
Sun 05:55:47 PM 42.1111 -89.1311 18° North 279 321 5,600 -2,177 Descending Chicago Center
Sun 05:56:49 PM 42.1606 -89.0322 56° Northeast 269 310 3,300 -1,403 Descending Chicago Center
Sun 05:57:51 PM 42.1981 -88.9850 43° Northeast 210 242 2,700 -484 Descending Chicago Center
Sun 05:58:53 PM 42.2450 -89.0103 338° Northwest 198 228 2,300 -387 Descending Chicago Center

Login

Don't have an account? Register now (free) for customized features, flight alerts, and more!